Terminal Aerodrome Forecast
Issued by NWS

Home | Current Version | Previous Version | Text Only | Print | Product List | Glossary On
Versions: 1 2 3 4 5 6 7 8 9 10 11 12 13 14 15 16 17 18 19 20 21 22 23 24 25 26 27 28
980
FTUS42 KGSP 250538
TAFHKY
TAF
KHKY 250538Z 2506/2606 VRB03KT P6SM FEW080 SCT250
     FM251700 22006KT P6SM SCT060 BKN250
     FM252100 23006KT P6SM BKN060
     FM260000 23003KT P6SM BKN070=

USA.gov is the U.S. government's official web portal to all federal, state and local government web resources and services.